Data for 10/17/2014

Time Sea-Level Adjusted Pressure Absolute Pressure Temperature Relative Humidity Dew Point   
(mb) (inHg) (mb) (inHg) (C) (F) (%) (C) (F)
00:05 1020 30.12 850 25.1 3.6 38.5 59 -3.6 25.6
00:10 1021 30.15 850 25.1 3.2 37.7 59 -4 24.8
00:15 1021 30.15 850 25.1 3.3 37.9 60 -3.8 25.1
00:20 1021 30.15 850 25.1 3.5 38.3 58 -4 24.8
00:25 1021 30.15 850 25.1 3.5 38.4 57 -4.2 24.5
00:30 1021 30.15 850 25.1 3.8 38.9 56 -4.1 24.5
00:35 1021 30.15 850 25.1 3.8 38.8 57 -3.9 24.9
00:40 1021 30.15 850 25.1 3.2 37.8 59 -4 24.8
00:45 1021 30.15 850 25.1 3 37.5 60 -4 24.7
00:50 1021 30.15 850 25.1 2.8 37.1 61 -3.8 25.1
00:55 1021 30.15 850 25.1 2.3 36.1 64 -3.8 25.1
01:00 1021 30.15 850 25.1 2.4 36.4 61 -4.3 24.3
01:05 1021 30.15 850 25.1 2.9 37.2 59 -4.4 24.1
01:10 1021 30.15 850 25.1 3.4 38 57 -4.3 24.3
01:15 1021 30.15 850 25.1 3.6 38.5 56 -4.4 24.1
01:20 1021 30.15 850 25.1 3.9 39 55 -4.2 24.4
01:25 1021 30.15 850 25.1 3.7 38.7 57 -4.1 24.7
01:30 1021 30.15 850 25.1 3.3 38 58 -4.1 24.6
01:35 1021 30.15 850 25.1 2.9 37.2 60 -4.2 24.4
01:40 1021 30.15 850 25.1 2.8 37.1 60 -4.2 24.4
01:45 1021 30.15 850 25.1 2.6 36.7 61 -4.1 24.6
01:50 1021 30.15 850 25.1 2.5 36.6 59 -4.7 23.6
01:55 1021 30.15 850 25.1 3.4 38.2 55 -4.6 23.7
02:00 1021 30.15 850 25.1 3.7 38.7 55 -4.4 24.1
02:05 1021 30.15 850 25.1 4 39.2 54 -4.5 23.8
02:10 1021 30.15 850 25.1 3.9 39 56 -4.1 24.7
02:15 1021 30.15 850 25.1 3.3 38 58 -4.2 24.5
02:20 1021 30.15 850 25.1 3.4 38.2 57 -4.2 24.4
02:25 1021 30.15 850 25.1 3.3 38 58 -4.1 24.7
02:30 1021 30.15 850 25.1 3 37.5 59 -4.1 24.6
02:35 1021 30.15 850 25.1 3 37.5 58 -4.4 24.2
02:40 1021 30.15 850 25.1 3.2 37.7 59 -4.2 24.5
02:45 1021 30.15 850 25.1 2.9 37.2 60 -4.2 24.5
02:50 1021 30.15 850 25.1 2.7 36.8 60 -4.4 24.1
02:55 1021 30.15 850 25.1 2.6 36.8 61 -4.1 24.6
03:00 1021 30.15 850 25.1 2.2 36 62 -4.4 24.2
03:05 1021 30.15 850 25.1 2.3 36.2 61 -4.5 23.8
03:10 1021 30.15 850 25.1 2.1 35.8 63 -4.3 24.3
03:15 1021 30.15 850 25.1 1.7 35 64 -4.4 24.1
03:20 1021 30.15 850 25.1 1.6 34.9 64 -4.4 24
03:25 1021 30.15 850 25.1 1.6 34.9 62 -4.9 23.2
03:30 1021 30.15 850 25.1 2.4 36.3 59 -4.8 23.4
03:35 1021 30.15 850 25.1 2.5 36.5 60 -4.4 24.1
03:40 1021 30.15 850 25.1 2.1 35.7 62 -4.4 24
03:45 1021 30.15 850 25.1 1.8 35.2 63 -4.4 24.1
03:50 1021 30.15 850 25.1 1.7 35.1 63 -4.6 23.8
03:55 1021 30.15 850 25.1 1.7 35 63 -4.6 23.8
04:00 1021 30.15 850 25.1 1.6 34.9 64 -4.5 24
04:05 1021 30.15 850 25.1 1.7 35 63 -4.6 23.7
04:10 1021 30.15 850 25.1 1.7 35 64 -4.5 23.9
04:15 1021 30.15 850 25.1 1.5 34.7 65 -4.4 24.1
04:20 1021 30.15 850 25.1 1.2 34.1 65 -4.6 23.7
04:25 1021 30.15 850 25.1 1.4 34.6 64 -4.6 23.7
04:30 1021 30.15 850 25.1 1.8 35.2 63 -4.5 23.9
04:35 1021 30.15 850 25.1 1.9 35.4 63 -4.4 24.1
04:40 1021 30.15 850 25.1 1.8 35.3 63 -4.5 23.9
04:45 1021 30.15 850 25.1 1.8 35.2 63 -4.4 24
04:50 1021 30.15 850 25.1 1.6 34.9 64 -4.4 24.1
04:55 1021 30.15 850 25.1 1.3 34.4 65 -4.5 23.9
05:00 1021 30.15 850 25.1 1.4 34.4 65 -4.5 23.9
05:05 1021 30.15 850 25.1 1.4 34.6 65 -4.5 23.9
05:10 1021 30.15 850 25.1 1.2 34.1 66 -4.4 24.1
05:15 1021 30.15 850 25.1 1.2 34.1 65 -4.7 23.5
05:20 1021 30.15 850 25.1 1.4 34.6 64 -4.7 23.6
05:25 1021 30.15 850 25.1 1.7 35.1 62 -4.8 23.4
05:30 1021 30.15 850 25.1 2 35.5 62 -4.6 23.8
05:35 1021 30.15 850 25.1 2 35.6 62 -4.5 23.8
05:40 1021 30.15 850 25.1 1.8 35.3 63 -4.5 23.8
05:45 1021 30.15 850 25.1 1.6 34.9 64 -4.5 23.8
05:50 1021 30.15 850 25.1 1.4 34.6 65 -4.4 24.1
05:55 1021 30.15 850 25.1 1 33.8 67 -4.4 24
06:00 1021 30.15 850 25.1 0.8 33.5 67 -4.6 23.7
06:05 1021 30.15 850 25.1 0.9 33.7 67 -4.5 23.9
06:10 1021 30.15 850 25.1 0.9 33.6 67 -4.6 23.8
06:15 1021 30.15 850 25.1 0.9 33.6 66 -4.8 23.4
06:20 1021 30.15 850 25.1 1.4 34.5 62 -5.1 22.8
06:25 1021 30.15 850 25.1 2 35.7 60 -4.8 23.3
06:30 1021 30.15 850 25.1 2.3 36.2 58 -5.1 22.8
06:35 1021 30.15 850 25.1 2.8 37 58 -4.7 23.5
06:40 1021 30.15 850 25.1 2.7 36.8 58 -4.7 23.5
06:45 1021 30.15 850 25.1 2.6 36.7 59 -4.6 23.7
06:50 1021 30.15 850 25.1 2.6 36.7 58 -4.8 23.4
06:55 1021 30.15 850 25.1 2.8 37.1 57 -4.8 23.3
07:00 1021 30.15 850 25.1 2.9 37.2 57 -4.7 23.5
07:05 1021 30.15 850 25.1 3.4 38.1 55 -4.8 23.4
07:10 1021 30.15 850 25.1 3.1 37.6 57 -4.5 23.8
07:15 1021 30.15 850 25.1 2.9 37.2 57 -4.8 23.3
07:20 1021 30.15 850 25.1 2.9 37.3 57 -4.8 23.4
07:25 1021 30.15 850 25.1 2.8 37 58 -4.7 23.5
07:30 1021 30.15 851 25.13 3 37.5 54 -5.3 22.5
07:35 1021 30.15 851 25.13 3.4 38.1 54 -5 23.1
07:40 1021 30.15 851 25.13 3.3 37.9 55 -4.9 23.1
07:45 1021 30.15 851 25.13 3.5 38.2 56 -4.5 23.8
07:50 1021 30.15 851 25.13 3.2 37.7 56 -4.7 23.6
07:55 1021 30.15 851 25.13 3.8 38.8 54 -4.7 23.5
08:00 1021 30.15 851 25.13 3.5 38.3 55 -4.8 23.3
08:05 1021 30.15 851 25.13 3.6 38.5 54 -4.9 23.1
08:10 1021 30.15 851 25.13 4.1 39.4 52 -4.8 23.3
08:15 1022 30.18 851 25.13 4.6 40.3 50 -4.8 23.4
08:20 1021 30.15 851 25.13 5.1 41.2 49 -4.6 23.8
08:25 1021 30.15 851 25.13 5.6 42.1 48 -4.5 24
08:30 1021 30.15 851 25.13 5.8 42.5 48 -4.4 24
08:35 1021 30.15 851 25.13 5.6 42 47 -4.7 23.5
08:40 1021 30.15 851 25.13 6 42.9 46 -4.6 23.8
08:45 1022 30.18 851 25.13 6.6 43.8 44 -4.9 23.1
08:50 1021 30.15 851 25.13 6.3 43.4 47 -4.1 24.6
08:55 1021 30.15 851 25.13 6.2 43.2 45 -4.9 23.1
09:00 1021 30.15 851 25.13 6.6 43.9 45 -4.4 24
09:05 1021 30.15 851 25.13 7.5 45.5 43 -4.2 24.5
09:10 1021 30.15 851 25.13 7.3 45.1 44 -4.3 24.3
09:15 1021 30.15 851 25.13 7.5 45.4 41 -5 23.1
09:20 1021 30.15 851 25.13 7.9 46.2 41 -4.7 23.6
09:25 1021 30.15 851 25.13 8.4 47.1 41 -4.2 24.4
09:30 1021 30.15 851 25.13 8.5 47.4 41 -3.8 25.2
09:35 1021 30.15 851 25.13 8.3 47 43 -3.4 25.8
09:40 1021 30.15 851 25.13 8.4 47.1 43 -3.6 25.6
09:45 1021 30.15 850 25.1 8.5 47.3 41 -3.9 25
09:50 1021 30.15 850 25.1 9.2 48.5 40 -3.6 25.6
09:55 1021 30.15 850 25.1 9.5 49 40 -3.5 25.6
10:00 1021 30.15 850 25.1 9.8 49.7 39 -3.4 25.8
10:05 1021 30.15 850 25.1 9.8 49.6 38 -3.9 25
10:10 1021 30.15 850 25.1 10.1 50.3 37 -3.8 25.1
10:15 1021 30.15 850 25.1 10 50.1 37 -4 24.9
10:20 1021 30.15 850 25.1 9.9 49.8 38 -3.7 25.4
10:25 1021 30.15 850 25.1 10.1 50.2 37 -4 24.8
10:30 1021 30.15 850 25.1 10.3 50.6 36 -4.1 24.6
10:35 1021 30.15 850 25.1 10.3 50.6 38 -3.3 26
10:40 1021 30.15 850 25.1 9.8 49.6 40 -3.1 26.4
10:45 1021 30.15 850 25.1 10.2 50.3 38 -3.6 25.6
10:50 1021 30.15 850 25.1 10 49.9 40 -3.1 26.3
10:55 1021 30.15 850 25.1 10.4 50.7 38 -3.2 26.2
11:00 1021 30.15 850 25.1 11.1 52 36 -3.4 25.9
11:05 1021 30.15 850 25.1 11.5 52.7 36 -2.8 26.9
11:10 1021 30.15 850 25.1 11.3 52.3 38 -2.6 27.3
11:15 1021 30.15 850 25.1 11.3 52.4 36 -3.1 26.4
11:20 1020 30.12 850 25.1 11.1 52 38 -2.7 27.1
11:25 1020 30.12 850 25.1 10.9 51.6 38 -2.9 26.8
11:30 1020 30.12 849 25.07 11.2 52.1 37 -3 26.5
11:35 1020 30.12 849 25.07 11.9 53.4 34 -3.5 25.8
11:40 1020 30.12 849 25.07 12.5 54.5 36 -2 28.3
11:45 1020 30.12 849 25.07 12.2 54 35 -2.6 27.3
11:50 1020 30.12 849 25.07 11.8 53.3 37 -2.2 28.1
11:55 1020 30.12 849 25.07 12.4 54.4 35 -2.6 27.3
12:00 1020 30.12 849 25.07 12.7 54.8 33 -3.1 26.4
12:05 1020 30.12 849 25.07 12.7 54.8 34 -2.9 26.8
12:10 1020 30.12 849 25.07 13 55.4 34 -2.4 27.8
12:15 1020 30.12 849 25.07 12.8 55.1 35 -2.3 27.9
12:20 1020 30.12 849 25.07 12.2 53.9 37 -2.1 28.2
12:25 1019 30.09 849 25.07 13 55.4 34 -2.6 27.3
12:30 1019 30.09 849 25.07 12.1 53.7 37 -2 28.5
12:35 1019 30.09 849 25.07 12.9 55.3 33 -2.9 26.7
12:40 1019 30.09 848 25.04 13.1 55.5 34 -2.3 27.9
12:45 1019 30.09 848 25.04 13.7 56.7 33 -2.1 28.3
12:50 1019 30.09 848 25.04 13.7 56.7 33 -2.3 27.9
12:55 1019 30.09 848 25.04 13.9 56.9 34 -1.8 28.7
13:00 1019 30.09 848 25.04 12.7 54.8 35 -2.2 28
13:05 1019 30.09 848 25.04 13 55.3 34 -2.5 27.6
13:10 1019 30.09 848 25.04 12.8 55.1 35 -2.2 28
13:15 1019 30.09 848 25.04 13.1 55.6 35 -1.8 28.8
13:20 1019 30.09 848 25.04 13.4 56.1 33 -2.7 27.2
13:25 1019 30.09 848 25.04 14.5 58.2 32 -2 28.5
13:30 1019 30.09 848 25.04 14.5 58.1 32 -1.8 28.8
13:35 1019 30.09 848 25.04 14.9 58.8 31 -2.1 28.2
13:40 1019 30.09 848 25.04 15.3 59.5 30 -1.9 28.6
13:45 1019 30.09 848 25.04 15.6 60.1 30 -1.9 28.5
13:50 1019 30.09 848 25.04 15.9 60.6 30 -1.7 28.9
13:55 1019 30.09 848 25.04 15.9 60.5 28 -2.3 27.9
14:00 1019 30.09 848 25.04 15.9 60.5 29 -2.1 28.3
14:05 1019 30.09 848 25.04 15.2 59.4 32 -1.5 29.3
14:10 1019 30.09 848 25.04 15.8 60.5 29 -2.2 28
14:15 1018 30.06 848 25.04 16.4 61.5 27 -2.4 27.7
14:20 1018 30.06 848 25.04 15.8 60.5 30 -1.7 28.9
14:25 1018 30.06 848 25.04 15.7 60.2 29 -2.4 27.7
14:30 1018 30.06 848 25.04 16.4 61.4 28 -1.9 28.5
14:35 1018 30.06 848 25.04 15.6 60 28 -2.7 27.2
14:40 1018 30.06 848 25.04 16 60.8 28 -2.3 27.8
14:45 1018 30.06 847 25.01 16.3 61.3 28 -2 28.5
14:50 1018 30.06 847 25.01 16.4 61.6 28 -2.3 27.9
14:55 1018 30.06 847 25.01 16.4 61.5 28 -2.2 28
15:00 1018 30.06 847 25.01 15.5 60 28 -2.7 27.2
15:05 1018 30.06 847 25.01 15.5 59.8 29 -2.6 27.3
15:10 1018 30.06 847 25.01 16.2 61.2 26 -3.3 26
15:15 1018 30.06 847 25.01 17 62.5 26 -2.3 27.8
15:20 1018 30.06 847 25.01 17.4 63.2 26 -2.4 27.6
15:25 1018 30.06 847 25.01 17.3 63.2 26 -2.4 27.6
15:30 1018 30.06 847 25.01 17.1 62.8 27 -2 28.5
15:35 1018 30.06 847 25.01 16.8 62.3 27 -2.3 27.9
15:40 1018 30.06 847 25.01 17.4 63.2 27 -1.9 28.7
15:45 1018 30.06 847 25.01 17.5 63.5 26 -2.1 28.3
15:50 1018 30.06 847 25.01 17.1 62.9 28 -1.5 29.3
15:55 1018 30.06 847 25.01 17 62.7 28 -1.6 29.1
16:00 1018 30.06 847 25.01 16.7 62.1 28 -1.8 28.7
16:05 1018 30.06 847 25.01 16.1 61 29 -1.7 28.9
16:10 1018 30.06 847 25.01 15.6 60.1 30 -1.7 28.9
16:15 1018 30.06 847 25.01 16.1 61 28 -2.1 28.3
16:20 1018 30.06 847 25.01 16.4 61.5 28 -2 28.4
16:25 1018 30.06 847 25.01 16.3 61.3 29 -1.5 29.3
16:30 1018 30.06 847 25.01 16 60.9 30 -1.3 29.7
16:35 1018 30.06 847 25.01 15.8 60.5 29 -2.2 28
16:40 1018 30.06 847 25.01 16.2 61.2 27 -2.7 27.1
16:45 1018 30.06 847 25.01 16 60.7 26 -3.2 26.3
16:50 1018 30.06 847 25.01 15.1 59.3 26 -4.1 24.7
16:55 1018 30.06 847 25.01 14.6 58.2 27 -4.2 24.5
17:00 1018 30.06 847 25.01 14.3 57.7 28 -4 24.8
17:05 1018 30.06 847 25.01 14 57.2 29 -3.8 25.1
17:10 1018 30.06 847 25.01 13.7 56.6 30 -3.6 25.4
17:15 1018 30.06 847 25.01 13.4 56 30 -3.7 25.3
17:20 1018 30.06 847 25.01 13.1 55.7 31 -3.6 25.6
17:25 1018 30.06 847 25.01 12.9 55.3 31 -3.5 25.7
17:30 1018 30.06 847 25.01 12.6 54.7 32 -3.4 25.8
17:35 1018 30.06 847 25.01 12.4 54.3 33 -3.4 26
17:40 1018 30.06 847 25.01 12.2 54 34 -3.2 26.2
17:45 1018 30.06 847 25.01 12.1 53.8 34 -3.2 26.2
17:50 1018 30.06 847 25.01 12 53.5 35 -3 26.5
17:55 1018 30.06 847 25.01 11.8 53.2 36 -2.8 27
18:00 1018 30.06 847 25.01 11.5 52.7 37 -2.5 27.4
18:05 1018 30.06 847 25.01 11.2 52.1 38 -2.4 27.6
18:10 1018 30.06 847 25.01 10.9 51.7 39 -2.4 27.7
18:15 1018 30.06 847 25.01 10.9 51.5 39 -2.6 27.3
18:20 1018 30.06 847 25.01 11 51.9 38 -2.8 26.9
18:25 1018 30.06 847 25.01 11.2 52.2 37 -2.8 26.9
18:30 1018 30.06 847 25.01 11.3 52.3 37 -2.8 27
18:35 1018 30.06 847 25.01 11.3 52.3 36 -3 26.6
18:40 1018 30.06 847 25.01 11.5 52.6 36 -3.1 26.5
18:45 1018 30.06 847 25.01 11.5 52.7 36 -3 26.6
18:50 1018 30.06 847 25.01 11.5 52.6 36 -3 26.6
18:55 1018 30.06 847 25.01 11.3 52.3 36 -3 26.5
19:00 1018 30.06 847 25.01 11.2 52.2 37 -3 26.6
19:05 1018 30.06 847 25.01 11.1 51.9 37 -3 26.6
19:10 1018 30.06 847 25.01 11.1 51.9 37 -3 26.5
19:15 1018 30.06 847 25.01 11 51.8 37 -3 26.7
19:20 1018 30.06 847 25.01 10.9 51.7 38 -3 26.6
19:25 1018 30.06 847 25.01 10.8 51.5 38 -3 26.6
19:30 1018 30.06 847 25.01 10.8 51.4 38 -3 26.6
19:35 1018 30.06 847 25.01 10.7 51.3 38 -3.1 26.5
19:40 1018 30.06 847 25.01 10.7 51.3 37 -3.2 26.2
19:45 1018 30.06 847 25.01 10.8 51.4 37 -3.4 25.9
19:50 1018 30.06 847 25.01 10.7 51.3 37 -3.4 25.9
19:55 1018 30.06 847 25.01 10.7 51.2 37 -3.4 26
20:00 1018 30.06 847 25.01 10.7 51.2 37 -3.4 25.9
20:05 1018 30.06 847 25.01 10.6 51.1 37 -3.4 26
20:10 1018 30.06 847 25.01 10.4 50.7 38 -3.3 26
20:15 1018 30.06 847 25.01 10.2 50.4 38 -3.4 25.9
20:20 1018 30.06 847 25.01 10.1 50.1 39 -3.3 26
20:25 1018 30.06 847 25.01 10 50 38 -3.6 25.6
20:30 1018 30.06 847 25.01 10.1 50.2 39 -3.3 26
20:35 1018 30.06 847 25.01 9.9 49.8 39 -3.2 26.2
20:40 1018 30.06 847 25.01 9.8 49.6 40 -3.3 26.1
20:45 1018 30.06 847 25.01 9.7 49.4 40 -3.4 25.9
20:50 1018 30.06 847 25.01 9.7 49.4 40 -3.4 25.9
20:55 1018 30.06 847 25.01 9.6 49.4 39 -3.4 25.8
21:00 1018 30.06 847 25.01 9.7 49.5 39 -3.4 25.9
21:05 1018 30.06 847 25.01 9.7 49.5 39 -3.4 26
21:10 1018 30.06 847 25.01 9.8 49.7 39 -3.5 25.7
21:15 1018 30.06 847 25.01 10 50 39 -3.4 25.8
21:20 1018 30.06 847 25.01 9.9 49.8 40 -3.1 26.4
21:25 1018 30.06 847 25.01 9.6 49.3 40 -3.2 26.2
21:30 1018 30.06 847 25.01 9.5 49.1 41 -3.2 26.2
21:35 1018 30.06 847 25.01 9.4 48.9 41 -3.2 26.3
21:40 1018 30.06 847 25.01 9.3 48.7 42 -3.1 26.4
21:45 1018 30.06 847 25.01 9.1 48.5 42 -2.9 26.7
21:50 1018 30.06 847 25.01 8.9 48.1 42 -3.2 26.3
21:55 1018 30.06 847 25.01 9 48.1 42 -3.2 26.2
22:00 1018 30.06 847 25.01 9 48.2 42 -3.2 26.3
22:05 1018 30.06 847 25.01 8.9 48.1 42 -3.2 26.2
22:10 1018 30.06 847 25.01 8.8 47.9 42 -3.2 26.2
22:15 1018 30.06 847 25.01 8.8 47.9 42 -3.3 26
22:20 1018 30.06 847 25.01 8.9 48 42 -3.3 26
22:25 1018 30.06 847 25.01 9 48.2 42 -3.1 26.4
22:30 1018 30.06 847 25.01 9.1 48.3 41 -3.3 26.1
22:35 1018 30.06 847 25.01 9 48.3 42 -3.1 26.5
22:40 1018 30.06 847 25.01 8.9 48.1 44 -2.8 27
22:45 1018 30.06 847 25.01 8.8 47.8 44 -2.8 26.9
22:50 1018 30.06 847 25.01 8.8 47.8 44 -2.8 27
22:55 1018 30.06 847 25.01 8.7 47.7 43 -3 26.6
23:00 1018 30.06 847 25.01 8.8 47.8 43 -3 26.6
23:05 1018 30.06 847 25.01 8.9 47.9 43 -3.1 26.4
23:10 1018 30.06 847 25.01 8.9 48 43 -3 26.6
23:15 1018 30.06 847 25.01 9 48.3 43 -2.9 26.9
23:20 1018 30.06 847 25.01 9 48.2 42 -3.1 26.5
23:25 1018 30.06 847 25.01 9 48.2 43 -2.9 26.8
23:30 1018 30.06 847 25.01 8.9 48.1 43 -2.9 26.7
23:35 1018 30.06 847 25.01 8.8 47.9 44 -2.7 27.2
23:40 1018 30.06 847 25.01 8.8 47.8 44 -2.8 26.9
23:45 1018 30.06 847 25.01 8.9 48.1 43 -3 26.6
23:50 1018 30.06 847 25.01 9.1 48.3 42 -3.1 26.4
23:55 1018 30.06 847 25.01 9 48.3 44 -2.5 27.5
24:00 1018 30.06 847 25.01 8.6 47.5 46 -2.4 27.8